Time;durP1;ratioP1;P1;durP2;ratioP2;P2;SDS_P1;SDS_P2;PMS_P1;PMS_P2;Temp;Humidity;BMP_temperature;BMP_pressure;BME280_temperature;BME280_humidity;BME280_pressure;Samples;Min_cycle;Max_cycle;Signal;HPM_P1;HPM_P2
2022/07/10 00:01:33;;;;;;;6.45;4.00;;;;;;;18.97;70.39;99713.03;1698923;83;21083;-63
2022/07/10 00:04:04;;;;;;;6.60;3.87;;;;;;;18.90;70.59;99712.44;1640787;87;21514;-64
2022/07/10 00:06:34;;;;;;;6.78;3.98;;;;;;;18.88;70.77;99709.93;1641423;87;21053;-64
2022/07/10 00:09:06;;;;;;;6.55;3.95;;;;;;;18.88;70.87;99718.81;1714731;83;21121;-63
2022/07/10 00:11:38;;;;;;;5.80;3.90;;;;;;;18.90;70.88;99722.16;1662371;84;21070;-63
2022/07/10 00:14:08;;;;;;;7.58;4.50;;;;;;;18.90;70.88;99717.44;1668966;84;21637;-63
2022/07/10 00:16:38;;;;;;;8.28;4.42;;;;;;;18.91;70.92;99715.50;1666851;84;21046;-62
2022/07/10 00:19:09;;;;;;;6.92;4.17;;;;;;;18.90;71.01;99722.16;1624287;87;21515;-62
2022/07/10 00:21:39;;;;;;;6.30;4.20;;;;;;;18.87;71.05;99727.69;1658055;85;21113;-63
2022/07/10 00:24:10;;;;;;;7.40;4.08;;;;;;;18.83;71.12;99723.75;1669238;84;21073;-63
2022/07/10 00:26:39;;;;;;;4.55;3.90;;;;;;;18.76;71.28;99734.25;1676234;84;21078;-63
2022/07/10 00:29:09;;;;;;;5.35;3.80;;;;;;;18.74;71.41;99730.91;1660356;85;21076;-62
2022/07/10 00:31:40;;;;;;;5.85;3.47;;;;;;;18.73;71.51;99728.41;1649878;85;21062;-62
2022/07/10 00:34:09;;;;;;;7.00;4.20;;;;;;;18.69;71.75;99727.55;1660075;84;21057;-62
2022/07/10 00:36:39;;;;;;;5.95;3.98;;;;;;;18.67;71.88;99724.76;1688758;84;21027;-61
2022/07/10 00:39:09;;;;;;;5.58;3.85;;;;;;;18.63;72.02;99723.62;1640855;87;21047;-64
2022/07/10 00:41:41;;;;;;;6.05;3.77;;;;;;;18.60;72.15;99725.52;1652466;85;21490;-64
2022/07/10 00:44:10;;;;;;;6.87;3.77;;;;;;;18.57;72.29;99725.49;1666818;86;21523;-62
2022/07/10 00:46:40;;;;;;;5.08;3.55;;;;;;;18.58;72.34;99718.00;1713794;83;21071;-63
2022/07/10 00:49:11;;;;;;;6.30;3.65;;;;;;;18.55;72.45;99719.37;1714836;83;21054;-64
2022/07/10 00:51:41;;;;;;;7.28;3.60;;;;;;;18.55;72.52;99725.48;1703596;83;21031;-62
2022/07/10 00:54:10;;;;;;;6.42;3.92;;;;;;;18.52;72.56;99724.06;1703252;83;21442;-62
2022/07/10 00:56:39;;;;;;;5.55;3.77;;;;;;;18.51;72.60;99719.63;1710025;83;21478;-64
2022/07/10 00:59:11;;;;;;;5.95;3.70;;;;;;;18.50;72.60;99720.73;1640299;87;21032;-63
2022/07/10 01:01:42;;;;;;;5.50;3.87;;;;;;;18.50;72.62;99715.18;1646352;86;21058;-64
2022/07/10 01:04:12;;;;;;;5.22;3.87;;;;;;;18.42;72.71;99712.06;1714736;83;20993;-69
2022/07/10 01:06:42;;;;;;;7.17;3.65;;;;;;;18.36;72.90;99718.96;1716627;83;21094;-63
2022/07/10 01:09:11;;;;;;;6.70;3.95;;;;;;;18.34;73.02;99714.23;1678389;85;21010;-63
2022/07/10 01:11:43;;;;;;;5.15;3.50;;;;;;;18.32;73.07;99705.34;1713112;83;21051;-61
2022/07/10 01:14:14;;;;;;;5.90;3.42;;;;;;;18.33;73.13;99716.72;1705548;83;21075;-62
2022/07/10 01:16:43;;;;;;;6.78;3.55;;;;;;;18.33;73.15;99710.33;1714852;83;21055;-62
2022/07/10 01:19:12;;;;;;;6.97;3.40;;;;;;;18.31;73.26;99713.92;1702874;83;21093;-62
2022/07/10 01:21:44;;;;;;;5.50;3.77;;;;;;;18.27;73.41;99715.00;1657964;85;21128;-62
2022/07/10 01:24:14;;;;;;;4.60;3.60;;;;;;;18.25;73.44;99706.66;1711745;83;21064;-62
2022/07/10 01:26:44;;;;;;;4.92;3.40;;;;;;;18.21;73.52;99705.52;1720447;83;21083;-62
2022/07/10 01:29:15;;;;;;;5.50;3.45;;;;;;;18.21;73.58;99702.20;1706119;83;21552;-61
2022/07/10 01:31:46;;;;;;;7.83;3.60;;;;;;;18.22;73.62;99701.09;1713212;83;21934;-62
2022/07/10 01:34:15;;;;;;;4.33;3.30;;;;;;;18.19;73.64;99697.98;1714025;83;21438;-63
2022/07/10 01:36:46;;;;;;;5.28;3.70;;;;;;;18.13;73.80;99692.95;1686088;83;21066;-62
2022/07/10 01:39:16;;;;;;;6.75;3.47;;;;;;;18.09;73.96;99693.74;1715870;83;21030;-62
2022/07/10 01:41:47;;;;;;;7.12;3.12;;;;;;;18.05;74.13;99691.50;1715586;83;21023;-62
2022/07/10 01:44:17;;;;;;;4.42;3.08;;;;;;;18.08;74.12;99685.14;1725072;83;21025;-62
2022/07/10 01:46:48;;;;;;;6.45;3.45;;;;;;;18.10;74.09;99682.94;1723412;83;21052;-63
2022/07/10 01:49:18;;;;;;;4.80;3.25;;;;;;;18.07;74.11;99678.76;1708581;83;20995;-62
2022/07/10 01:51:48;;;;;;;5.55;3.20;;;;;;;18.04;74.17;99684.28;1716087;83;21431;-66
2022/07/10 01:54:17;;;;;;;5.80;3.70;;;;;;;18.01;74.23;99682.04;1698581;83;21074;-64
2022/07/10 01:56:48;;;;;;;6.90;3.40;;;;;;;17.98;74.25;99686.73;1706891;83;21083;-63
2022/07/10 01:59:20;;;;;;;5.87;2.90;;;;;;;17.97;74.29;99678.12;1704718;83;21525;-63
2022/07/10 02:01:50;;;;;;;3.20;2.67;;;;;;;17.95;74.37;99680.33;1704827;83;21464;-62
2022/07/10 02:07:14;;;;;;;5.70;3.12;;;;;;;17.93;74.51;99673.37;1716613;83;21026;-63
2022/07/10 02:09:45;;;;;;;4.60;3.15;;;;;;;17.90;74.51;99669.19;1709286;83;21098;-63
2022/07/10 02:12:16;;;;;;;3.92;2.90;;;;;;;17.89;74.46;99664.75;1718725;83;21046;-62
2022/07/10 02:14:46;;;;;;;4.83;2.80;;;;;;;17.85;74.51;99670.53;1721572;83;21090;-70
2022/07/10 02:17:16;;;;;;;3.55;2.40;;;;;;;17.84;74.51;99668.86;1692171;83;21000;-63
2022/07/10 02:19:45;;;;;;;4.28;3.15;;;;;;;17.83;74.56;99678.27;1713704;83;21059;-62
2022/07/10 02:22:16;;;;;;;5.40;2.98;;;;;;;17.78;74.67;99669.91;1713005;83;21195;-63
2022/07/10 02:24:46;;;;;;;5.62;2.90;;;;;;;17.75;74.81;99664.89;1723072;83;21091;-63
2022/07/10 02:27:16;;;;;;;6.95;3.58;;;;;;;17.72;74.86;99667.64;1720256;83;21442;-64
2022/07/10 02:29:47;;;;;;;4.05;3.00;;;;;;;17.71;74.92;99663.75;1712430;83;21043;-63
2022/07/10 02:32:17;;;;;;;5.83;3.30;;;;;;;17.71;75.01;99663.20;1720224;83;21002;-63
2022/07/10 02:34:48;;;;;;;3.42;2.92;;;;;;;17.70;75.11;99664.84;1718497;83;21323;-64
2022/07/10 02:37:18;;;;;;;6.00;3.70;;;;;;;17.68;75.26;99661.50;1706571;83;21078;-63
2022/07/10 02:39:48;;;;;;;9.38;3.45;;;;;;;17.67;75.35;99659.83;1701585;83;21047;-62
2022/07/10 02:42:18;;;;;;;6.03;3.00;;;;;;;17.67;75.42;99657.06;1712672;83;21023;-66
2022/07/10 02:44:48;;;;;;;6.08;2.90;;;;;;;17.68;75.49;99650.42;1714879;83;21036;-62
2022/07/10 02:47:18;;;;;;;4.65;2.98;;;;;;;17.68;75.47;99651.80;1721806;83;21072;-62
2022/07/10 02:49:47;;;;;;;5.35;3.08;;;;;;;17.65;75.53;99649.53;1700249;83;21008;-62
2022/07/10 02:52:18;;;;;;;6.08;3.05;;;;;;;17.62;75.74;99643.13;1720268;83;21012;-63
2022/07/10 02:54:47;;;;;;;4.55;2.80;;;;;;;17.60;75.81;99642.55;1708520;83;21066;-62
2022/07/10 02:57:18;;;;;;;5.22;3.02;;;;;;;17.61;75.77;99644.23;1722247;83;21089;-63
2022/07/10 02:59:48;;;;;;;4.87;2.80;;;;;;;17.61;75.75;99653.38;1714742;83;21027;-61
2022/07/10 03:02:17;;;;;;;4.85;3.10;;;;;;;17.62;75.70;99651.44;1718434;83;21047;-63
2022/07/10 03:04:47;;;;;;;6.10;2.83;;;;;;;17.64;75.68;99652.84;1714133;83;21003;-62
2022/07/10 03:07:18;;;;;;;9.05;3.35;;;;;;;17.63;75.61;99651.17;1720231;83;21028;-62
2022/07/10 03:09:49;;;;;;;4.58;3.05;;;;;;;17.63;75.59;99653.11;1717002;83;21050;-67
2022/07/10 03:12:19;;;;;;;6.85;3.22;;;;;;;17.62;75.50;99650.05;1714018;83;21090;-62
2022/07/10 03:14:48;;;;;;;7.47;3.45;;;;;;;17.64;75.51;99645.09;1698932;83;21031;-62
2022/07/10 03:17:18;;;;;;;5.47;3.22;;;;;;;17.69;75.22;99645.17;1713647;83;21162;-62
2022/07/10 03:19:49;;;;;;;5.10;3.47;;;;;;;17.71;75.09;99647.12;1724230;83;21018;-62
2022/07/10 03:22:18;;;;;;;8.83;3.80;;;;;;;17.73;75.04;99647.70;1716702;83;21057;-63
2022/07/10 03:24:48;;;;;;;6.00;3.50;;;;;;;17.77;74.80;99650.23;1719454;83;21062;-62
2022/07/10 03:27:18;;;;;;;5.53;3.42;;;;;;;17.79;74.51;99650.80;1713471;83;21003;-64
2022/07/10 03:29:48;;;;;;;7.22;3.47;;;;;;;17.82;74.31;99655.81;1716119;83;21081;-62
2022/07/10 03:32:18;;;;;;;4.42;3.10;;;;;;;17.87;74.06;99656.41;1713293;83;21035;-62
2022/07/10 03:34:48;;;;;;;5.65;3.30;;;;;;;17.89;73.84;99650.89;1713596;83;21011;-63
2022/07/10 03:37:18;;;;;;;4.50;3.22;;;;;;;17.89;73.56;99657.82;1724417;83;21024;-67
2022/07/10 03:39:49;;;;;;;5.08;3.15;;;;;;;17.88;73.49;99653.38;1719486;83;21043;-65
2022/07/10 03:42:19;;;;;;;6.50;3.62;;;;;;;17.90;73.28;99658.11;1720509;83;21061;-62
2022/07/10 03:44:49;;;;;;;3.72;2.90;;;;;;;17.95;73.01;99658.70;1714722;83;20988;-63
2022/07/10 03:47:19;;;;;;;6.12;2.90;;;;;;;17.99;72.79;99662.06;1708898;83;21027;-62
2022/07/10 03:49:48;;;;;;;5.10;2.92;;;;;;;18.03;72.55;99660.98;1722102;83;21321;-63
2022/07/10 03:52:20;;;;;;;5.05;2.80;;;;;;;18.06;72.32;99660.45;1708469;83;21554;-62
2022/07/10 03:54:50;;;;;;;5.70;3.02;;;;;;;18.07;72.09;99656.58;1701271;83;21051;-63
2022/07/10 04:00:09;;;;;;;4.00;2.70;;;;;;;18.15;71.92;99656.64;1715742;83;21055;-63
2022/07/10 04:02:42;;;;;;;3.98;2.77;;;;;;;18.19;71.69;99656.39;1715579;83;21479;-63
2022/07/10 04:05:12;;;;;;;4.67;2.33;;;;;;;18.26;71.55;99655.09;1701742;83;21477;-63
2022/07/10 04:07:42;;;;;;;4.72;2.50;;;;;;;18.33;71.27;99651.54;1641491;87;21046;-64
2022/07/10 04:10:13;;;;;;;3.80;3.22;;;;;;;18.37;71.19;99651.84;1656210;86;21081;-63
2022/07/10 04:12:45;;;;;;;4.85;3.20;;;;;;;18.39;71.26;99646.86;1651138;86;21554;-61
2022/07/10 04:15:17;;;;;;;6.28;3.37;;;;;;;18.44;71.22;99651.05;1711581;83;21039;-64
2022/07/10 04:17:47;;;;;;;6.62;3.12;;;;;;;18.48;71.10;99653.58;1717842;83;21059;-63
2022/07/10 04:20:17;;;;;;;5.03;2.77;;;;;;;18.52;71.00;99653.33;1711913;83;21018;-63
2022/07/10 04:22:46;;;;;;;7.22;3.70;;;;;;;18.58;70.90;99643.92;1699783;83;21020;-64
2022/07/10 04:25:17;;;;;;;3.87;3.17;;;;;;;18.60;70.77;99648.66;1640541;87;21147;-63
2022/07/10 04:27:48;;;;;;;4.42;3.22;;;;;;;18.62;70.68;99653.97;1644165;87;21616;-63
2022/07/10 04:30:19;;;;;;;4.75;3.47;;;;;;;18.63;70.61;99650.09;1666885;86;21507;-64
2022/07/10 04:32:48;;;;;;;6.00;3.60;;;;;;;18.63;70.49;99650.92;1643823;87;21529;-63
2022/07/10 04:35:19;;;;;;;6.72;3.30;;;;;;;18.64;70.29;99640.66;1646140;86;21071;-65
2022/07/10 04:37:50;;;;;;;5.05;3.10;;;;;;;18.66;70.16;99641.23;1702179;83;20991;-64
2022/07/10 04:40:21;;;;;;;5.15;3.15;;;;;;;18.68;70.06;99637.08;1705000;83;21488;-62
2022/07/10 04:42:51;;;;;;;5.90;3.40;;;;;;;18.69;69.76;99636.52;1711408;83;21099;-62
2022/07/10 04:45:20;;;;;;;5.42;3.45;;;;;;;18.69;69.65;99645.69;1706758;83;21011;-63
2022/07/10 04:47:50;;;;;;;5.25;3.22;;;;;;;18.72;69.60;99654.02;1640435;87;21569;-61
2022/07/10 04:50:20;;;;;;;5.87;3.15;;;;;;;18.75;69.29;99652.65;1647929;87;21070;-64
2022/07/10 04:52:50;;;;;;;3.83;3.00;;;;;;;18.77;69.10;99653.22;1700311;83;21024;-62
2022/07/10 04:55:21;;;;;;;6.28;3.20;;;;;;;18.81;68.93;99651.57;1709042;83;21023;-63
2022/07/10 04:57:51;;;;;;;5.17;3.35;;;;;;;18.85;68.89;99650.77;1651010;87;21043;-63
2022/07/10 05:00:21;;;;;;;6.50;3.70;;;;;;;18.94;68.79;99652.49;1644493;86;21076;-62
2022/07/10 05:02:50;;;;;;;6.25;3.62;;;;;;;19.02;68.37;99650.59;1658788;86;22126;-63
2022/07/10 05:05:21;;;;;;;6.47;3.70;;;;;;;19.15;68.30;99649.25;1657421;86;21477;-63
2022/07/10 05:07:51;;;;;;;3.45;3.15;;;;;;;19.31;68.03;99660.13;1649268;86;21109;-63
2022/07/10 05:10:22;;;;;;;5.72;3.75;;;;;;;19.50;66.97;99652.67;1666084;85;21024;-64
2022/07/10 05:12:52;;;;;;;6.45;3.17;;;;;;;19.78;65.68;99650.84;1685550;85;21035;-64
2022/07/10 05:15:23;;;;;;;5.25;2.90;;;;;;;20.08;64.88;99654.73;1653465;86;21059;-66
2022/07/10 05:17:54;;;;;;;6.37;2.87;;;;;;;20.38;64.09;99652.52;1675255;85;21255;-63
2022/07/10 05:20:25;;;;;;;4.58;2.77;;;;;;;20.66;63.16;99645.53;1659941;86;21066;-63
2022/07/10 05:22:56;;;;;;;3.75;2.85;;;;;;;20.96;61.89;99639.89;1654571;86;21191;-62
2022/07/10 08:27:17;;;;;;;4.90;2.50;;;;;;;26.18;45.64;99585.97;1630791;87;21102;-68
2022/07/10 08:29:47;;;;;;;2.90;2.30;;;;;;;26.45;45.08;99595.41;1647369;86;21051;-62
2022/07/10 08:32:18;;;;;;;6.33;2.35;;;;;;;26.59;44.18;99592.49;1651073;87;21074;-63
2022/07/10 08:34:48;;;;;;;3.67;2.20;;;;;;;26.53;43.64;99591.81;1643865;87;21495;-68
2022/07/10 08:37:19;;;;;;;4.50;2.50;;;;;;;26.44;43.98;99588.13;1699289;83;21051;-63
2022/07/10 08:39:49;;;;;;;3.70;2.70;;;;;;;26.41;43.63;99592.98;1648849;86;21047;-64
2022/07/10 08:42:19;;;;;;;3.60;2.33;;;;;;;26.27;43.83;99596.43;1645969;87;21474;-63
2022/07/10 08:44:49;;;;;;;2.60;2.15;;;;;;;26.23;44.11;99591.45;1710153;83;21036;-64
2022/07/10 08:47:22;;;;;;;5.75;2.37;;;;;;;26.19;44.02;99589.03;1721513;83;21063;-62
2022/07/10 08:49:54;;;;;;;4.40;2.02;;;;;;;26.25;44.10;99591.70;1694731;83;21094;-61
2022/07/10 08:52:29;;;;;;;5.15;2.33;;;;;;;26.49;44.10;99585.17;1702810;83;21095;-62
2022/07/10 08:54:59;;;;;;;3.02;2.10;;;;;;;26.81;43.47;99580.63;1648009;85;21071;-62
2022/07/10 08:57:31;;;;;;;2.45;2.10;;;;;;;27.08;41.70;99574.53;1638642;86;21023;-63
2022/07/10 09:00:00;;;;;;;3.00;1.98;;;;;;;27.20;41.44;99571.91;1706683;83;21105;-63
2022/07/10 09:02:31;;;;;;;2.42;1.80;;;;;;;27.36;40.53;99570.30;1647974;87;21506;-65
2022/07/10 09:05:01;;;;;;;5.05;2.17;;;;;;;27.47;40.48;99567.41;1637484;87;21054;-57
2022/07/10 09:07:43;;;;;;;2.65;2.10;;;;;;;27.55;40.06;99574.20;1647185;86;21011;-58
2022/07/10 09:10:14;;;;;;;2.27;1.50;;;;;;;27.52;39.47;99568.41;1649181;86;21083;-58
2022/07/10 09:13:00;;;;;;;3.95;1.82;;;;;;;27.42;38.35;99570.39;1664890;86;21082;-59
2022/07/10 09:15:36;;;;;;;2.10;1.65;;;;;;;27.24;39.24;99563.06;1708415;84;21008;-59
2022/07/10 09:18:07;;;;;;;2.22;1.77;;;;;;;27.23;39.28;99569.02;1710428;83;21047;-58
2022/07/10 09:20:39;;;;;;;4.65;1.80;;;;;;;27.28;39.46;99571.67;1649233;87;21118;-63
2022/07/10 09:23:22;;;;;;;3.30;1.87;;;;;;;27.17;39.77;99571.16;1635386;87;21110;-63
2022/07/10 09:25:53;;;;;;;2.30;1.80;;;;;;;27.11;39.35;99571.06;1647113;86;21472;-63
2022/07/10 09:28:26;;;;;;;4.25;1.75;;;;;;;27.18;39.75;99565.78;1662277;86;21062;-64
2022/07/10 09:30:57;;;;;;;2.80;1.72;;;;;;;27.25;39.87;99560.50;1647448;86;21044;-62
2022/07/10 09:33:30;;;;;;;2.87;1.50;;;;;;;27.25;39.23;99552.06;1653077;86;21134;-63
2022/07/10 09:36:06;;;;;;;3.75;1.60;;;;;;;27.23;38.75;99551.56;1681824;85;21050;-63
2022/07/10 09:38:49;;;;;;;1.57;1.37;;;;;;;27.14;38.61;99552.13;1692321;85;21039;-63
2022/07/10 09:41:26;;;;;;;3.08;1.40;;;;;;;27.08;38.40;99550.63;1690196;85;21412;-65
2022/07/10 09:44:04;;;;;;;3.00;1.60;;;;;;;26.97;38.70;99540.23;1649261;86;21045;-63
2022/07/10 09:46:38;;;;;;;3.00;1.42;;;;;;;26.87;38.93;99548.16;1652730;86;21087;-62
2022/07/10 09:49:10;;;;;;;1.95;1.55;;;;;;;26.75;39.02;99539.77;1663476;86;21043;-63
2022/07/10 09:51:41;;;;;;;2.80;1.40;;;;;;;26.68;39.12;99545.04;1688858;84;21082;-61
2022/07/10 09:54:14;;;;;;;2.77;1.40;;;;;;;26.71;39.01;99542.16;1682103;85;21058;-62
2022/07/10 09:56:46;;;;;;;1.65;1.37;;;;;;;26.68;38.88;99538.02;1681439;85;21516;-64
2022/07/10 09:59:19;;;;;;;1.95;1.40;;;;;;;26.52;38.41;99528.34;1684848;85;21195;-63
2022/07/10 10:01:53;;;;;;;1.82;1.45;;;;;;;26.27;39.38;99529.85;1659264;86;21011;-63
2022/07/10 10:04:24;;;;;;;2.37;1.67;;;;;;;26.22;40.44;99530.82;1661935;86;21120;-62
2022/07/10 10:06:57;;;;;;;2.80;1.75;;;;;;;26.26;40.98;99534.39;1660913;86;21051;-62
2022/07/10 10:09:33;;;;;;;3.50;1.80;;;;;;;26.27;41.32;99534.06;1691059;85;21077;-61
2022/07/10 10:12:13;;;;;;;6.22;1.98;;;;;;;26.23;41.55;99535.86;1681385;85;21759;-63
2022/07/10 10:14:43;;;;;;;3.33;1.80;;;;;;;26.14;42.00;99540.03;1660241;85;21074;-62
2022/07/10 10:17:13;;;;;;;2.98;1.77;;;;;;;26.04;41.70;99540.30;1652733;86;21076;-63
2022/07/10 10:22:34;;;;;;;2.98;1.90;;;;;;;25.95;42.13;99536.58;1661328;86;21153;-64
2022/07/10 10:25:04;;;;;;;2.65;1.80;;;;;;;26.02;41.88;99527.16;1663039;86;21034;-63
2022/07/10 10:27:34;;;;;;;2.87;1.70;;;;;;;26.05;41.72;99529.33;1627808;86;21113;-64
2022/07/10 10:30:04;;;;;;;2.25;1.85;;;;;;;26.01;42.32;99525.51;1706447;83;21042;-62
2022/07/10 10:32:40;;;;;;;3.50;1.92;;;;;;;26.06;42.66;99526.77;1655969;85;21070;-64
2022/07/10 10:35:10;;;;;;;3.80;1.70;;;;;;;26.08;42.54;99528.69;1623616;86;21520;-63
2022/07/10 10:37:44;;;;;;;2.17;1.82;;;;;;;26.08;42.28;99524.47;1654511;85;21154;-64
2022/07/10 10:40:32;;;;;;;1.98;1.55;;;;;;;26.04;41.94;99519.25;1681369;85;21071;-62
2022/07/10 10:43:19;;;;;;;2.52;1.72;;;;;;;25.95;42.03;99516.93;1659290;85;21078;-62
2022/07/10 10:45:48;;;;;;;1.87;1.70;;;;;;;25.91;41.76;99511.70;1673340;85;21275;-63
2022/07/10 10:48:23;;;;;;;3.15;1.90;;;;;;;25.93;42.44;99514.20;1682610;85;21095;-64
2022/07/10 10:50:56;;;;;;;3.50;1.90;;;;;;;25.95;42.89;99499.27;1698921;83;21063;-63
2022/07/10 10:53:28;;;;;;;3.55;1.70;;;;;;;25.94;42.72;99508.26;1720280;83;21050;-63
2022/07/10 10:56:12;;;;;;;2.55;1.80;;;;;;;25.91;42.96;99512.54;1716340;83;21027;-64
2022/07/10 10:58:44;;;;;;;3.45;1.98;;;;;;;25.86;43.18;99501.44;1715622;83;21027;-68
2022/07/10 11:01:26;;;;;;;2.92;1.92;;;;;;;25.79;43.37;99489.84;1716788;83;21035;-63
2022/07/10 11:04:14;;;;;;;2.47;1.85;;;;;;;25.75;43.12;99498.66;1716227;83;21038;-63
2022/07/10 11:06:52;;;;;;;3.77;1.92;;;;;;;25.71;43.82;99491.20;1702791;83;21099;-62
2022/07/10 11:09:31;;;;;;;3.12;2.25;;;;;;;25.72;44.05;99496.48;1704147;83;21536;-61
2022/07/10 11:12:09;;;;;;;2.02;1.67;;;;;;;25.79;43.15;99493.23;1709960;83;21096;-62
2022/07/10 11:14:43;;;;;;;3.83;1.98;;;;;;;25.84;43.41;99495.33;1668602;85;21047;-62
2022/07/10 11:17:13;;;;;;;2.55;2.00;;;;;;;25.91;42.95;99486.45;1721292;83;21026;-62
2022/07/10 11:19:45;;;;;;;3.45;1.70;;;;;;;25.92;43.07;99483.89;1702514;82;21105;-65
2022/07/10 11:22:38;;;;;;;3.12;2.00;;;;;;;25.93;43.05;99477.70;1706237;83;21135;-62
2022/07/10 11:25:50;;;;;;;2.37;1.47;;;;;;;25.94;42.58;99483.00;1698677;83;21106;-58
2022/07/10 11:28:20;;;;;;;2.15;1.70;;;;;;;26.00;42.44;99476.09;1708214;83;21114;-62
2022/07/10 11:30:54;;;;;;;3.33;1.67;;;;;;;26.09;41.78;99488.22;1706356;83;21522;-63
2022/07/10 11:33:24;;;;;;;3.12;1.80;;;;;;;26.17;42.24;99480.99;1650078;87;21087;-62
2022/07/10 11:35:55;;;;;;;3.52;1.85;;;;;;;26.20;42.51;99485.39;1624844;87;21115;-63
2022/07/10 11:38:25;;;;;;;3.62;2.08;;;;;;;26.25;43.15;99489.20;1707566;83;21125;-62
2022/07/10 11:40:54;;;;;;;1.85;1.60;;;;;;;26.20;42.88;99483.16;1701669;83;21067;-61
2022/07/10 11:43:25;;;;;;;3.58;1.70;;;;;;;26.14;40.74;99481.06;1649896;87;21082;-61
2022/07/10 11:45:59;;;;;;;2.33;1.70;;;;;;;26.06;41.09;99488.87;1642058;86;21047;-62
2022/07/10 11:48:27;;;;;;;2.35;1.62;;;;;;;26.02;42.25;99490.67;1643872;86;21111;-62
2022/07/10 11:50:57;;;;;;;2.37;1.60;;;;;;;25.97;43.50;99489.95;1711439;83;21020;-62
2022/07/10 11:53:28;;;;;;;2.25;1.75;;;;;;;25.85;44.16;99493.34;1650009;87;21039;-62
2022/07/10 11:55:57;;;;;;;1.92;1.55;;;;;;;25.74;44.60;99490.55;1641970;87;21071;-64
2022/07/10 11:58:27;;;;;;;2.42;1.60;;;;;;;25.60;43.21;99481.61;1648135;86;21089;-62
2022/07/10 12:01:06;;;;;;;4.37;1.87;;;;;;;25.49;42.62;99483.02;1644206;87;21079;-62
2022/07/10 12:03:36;;;;;;;2.87;1.52;;;;;;;25.45;42.87;99486.77;1713440;83;22163;-61
2022/07/10 12:06:06;;;;;;;1.85;1.60;;;;;;;25.43;43.29;99488.49;1642482;86;21549;-63
2022/07/10 12:08:50;;;;;;;2.95;2.20;;;;;;;25.37;43.49;99480.52;1651940;87;21242;-62
2022/07/10 12:11:21;;;;;;;2.05;1.85;;;;;;;25.26;44.05;99495.34;1687984;83;21077;-64
2022/07/10 12:13:54;;;;;;;3.87;1.75;;;;;;;25.18;44.50;99484.88;1697609;83;21128;-62
2022/07/10 12:16:24;;;;;;;1.77;1.67;;;;;;;25.14;44.52;99490.86;1644181;86;21079;-65
2022/07/10 12:18:56;;;;;;;2.77;1.40;;;;;;;25.13;44.39;99479.39;1639682;87;21155;-61
2022/07/10 12:21:27;;;;;;;9.13;7.22;;;;;;;25.14;44.35;99487.48;1714425;83;21029;-61
2022/07/10 12:23:57;;;;;;;3.47;1.90;;;;;;;25.13;44.11;99481.63;1710973;83;21054;-63
2022/07/10 12:26:34;;;;;;;2.70;1.80;;;;;;;25.10;43.76;99481.42;1705844;83;21111;-63
2022/07/10 12:29:04;;;;;;;1.95;1.60;;;;;;;25.04;43.91;99471.48;1709049;83;21459;-61
2022/07/10 12:31:35;;;;;;;5.15;1.82;;;;;;;25.05;44.04;99474.53;1704938;83;21075;-64
2022/07/10 12:34:06;;;;;;;2.65;1.52;;;;;;;25.05;44.24;99482.37;1681852;84;21091;-62
2022/07/10 12:36:52;;;;;;;2.65;1.52;;;;;;;25.05;44.31;99478.17;1714909;83;21019;-63
2022/07/10 12:39:26;;;;;;;1.67;1.40;;;;;;;25.07;44.52;99474.48;1711693;83;21078;-62
2022/07/10 12:42:06;;;;;;;2.10;1.50;;;;;;;25.08;44.31;99469.13;1718948;83;21086;-62
2022/07/10 12:44:46;;;;;;;3.22;1.40;;;;;;;25.08;44.34;99468.30;1723062;83;21091;-62
2022/07/10 12:47:19;;;;;;;3.20;1.60;;;;;;;25.09;44.43;99461.55;1718034;83;21016;-62
2022/07/10 12:50:06;;;;;;;2.95;1.50;;;;;;;25.12;44.16;99466.52;1717274;83;21084;-63
2022/07/10 12:52:38;;;;;;;3.70;1.50;;;;;;;25.11;43.87;99460.66;1703852;82;21439;-61
2022/07/10 12:55:21;;;;;;;1.72;1.40;;;;;;;25.09;44.13;99454.54;1719032;83;21099;-65
2022/07/10 12:58:00;;;;;;;1.75;1.40;;;;;;;25.09;43.74;99451.16;1718879;83;21110;-62
2022/07/10 13:00:33;;;;;;;2.67;1.70;;;;;;;25.11;43.31;99456.45;1690831;84;21062;-62
2022/07/10 13:03:10;;;;;;;2.42;1.55;;;;;;;25.11;43.39;99456.45;1711949;83;21435;-62
2022/07/10 13:05:42;;;;;;;1.67;1.40;;;;;;;25.12;43.22;99459.52;1719481;83;21008;-61
2022/07/10 13:08:17;;;;;;;2.58;1.50;;;;;;;25.15;43.12;99457.48;1713653;83;21110;-63
2022/07/10 13:10:51;;;;;;;2.17;1.70;;;;;;;25.20;43.06;99457.35;1712637;83;21055;-63
2022/07/10 13:13:21;;;;;;;2.27;1.35;;;;;;;25.26;42.40;99454.67;1702064;83;21010;-64
2022/07/10 13:15:53;;;;;;;1.62;1.45;;;;;;;25.31;41.84;99460.73;1657160;86;21051;-62
2022/07/10 13:18:24;;;;;;;2.25;1.30;;;;;;;25.39;42.01;99460.00;1661662;86;21073;-63
2022/07/10 13:20:57;;;;;;;3.90;1.40;;;;;;;25.47;41.49;99460.06;1667364;85;21043;-62
2022/07/10 13:23:29;;;;;;;1.40;1.30;;;;;;;25.56;40.95;99458.72;1714040;83;21051;-62
2022/07/10 13:26:00;;;;;;;1.75;1.20;;;;;;;25.60;40.83;99465.34;1714600;83;21035;-62
2022/07/10 13:28:30;;;;;;;2.12;1.67;;;;;;;25.63;40.76;99466.69;1708889;83;21044;-63
2022/07/10 13:31:00;;;;;;;3.80;1.30;;;;;;;25.64;40.87;99461.33;1644178;86;21059;-62
2022/07/10 13:33:31;;;;;;;1.30;1.20;;;;;;;25.67;41.40;99455.11;1647202;86;21521;-63
2022/07/10 13:36:02;;;;;;;2.20;1.20;;;;;;;25.67;41.34;99454.53;1653648;86;21013;-63
2022/07/10 13:38:32;;;;;;;2.42;1.22;;;;;;;25.67;41.08;99452.30;1647165;86;21035;-62
2022/07/10 13:41:02;;;;;;;3.80;1.42;;;;;;;25.68;40.80;99455.36;1688474;83;21078;-62
2022/07/10 13:43:33;;;;;;;9.95;8.95;;;;;;;25.68;41.42;99448.34;1723727;83;21598;-63
2022/07/10 13:46:03;;;;;;;2.70;2.42;;;;;;;25.72;41.44;99443.75;1718690;83;21052;-63
2022/07/10 13:48:33;;;;;;;2.35;1.77;;;;;;;25.79;41.32;99442.71;1706626;83;20983;-62
2022/07/10 13:51:02;;;;;;;2.08;1.40;;;;;;;25.80;41.39;99442.39;1715069;83;21090;-62
2022/07/10 13:53:32;;;;;;;2.92;1.40;;;;;;;25.83;40.06;99443.15;1723607;83;20998;-63
2022/07/10 13:56:03;;;;;;;1.42;1.20;;;;;;;25.83;40.32;99450.73;1724439;83;21008;-64
2022/07/10 13:58:34;;;;;;;5.28;2.10;;;;;;;25.85;40.00;99435.23;1695222;83;21552;-62
2022/07/10 14:01:05;;;;;;;1.50;1.10;;;;;;;25.88;39.64;99437.97;1688904;83;21458;-66
2022/07/10 14:03:47;;;;;;;4.35;1.25;;;;;;;25.91;38.01;99440.13;1748262;80;21018;-66
2022/07/10 14:06:17;;;;;;;2.15;1.20;;;;;;;25.85;37.56;99433.00;1747743;82;21516;-63
2022/07/10 14:08:47;;;;;;;1.15;1.10;;;;;;;25.79;37.59;99444.94;1749659;82;21018;-62
2022/07/10 14:11:17;;;;;;;2.62;1.17;;;;;;;25.69;38.59;99444.39;1749614;80;21429;-68
2022/07/10 14:13:49;;;;;;;1.40;1.20;;;;;;;25.57;39.18;99440.16;1731704;82;21081;-64
2022/07/10 14:16:21;;;;;;;3.30;1.30;;;;;;;25.49;39.48;99442.34;1748810;82;22014;-61
2022/07/10 14:18:54;;;;;;;2.22;1.32;;;;;;;25.40;40.25;99440.05;1748825;81;21066;-65
2022/07/10 14:21:27;;;;;;;1.52;1.22;;;;;;;25.33;40.95;99444.42;1749828;80;21054;-63
2022/07/10 14:23:58;;;;;;;1.98;1.20;;;;;;;25.27;41.29;99445.12;1749959;81;21406;-63
2022/07/10 14:26:28;;;;;;;2.90;1.45;;;;;;;25.21;41.63;99443.02;1748883;82;21010;-62
2022/07/10 14:29:00;;;;;;;2.45;1.35;;;;;;;25.17;42.08;99441.16;1749299;82;21944;-64
2022/07/10 14:31:31;;;;;;;2.70;1.10;;;;;;;25.15;42.34;99440.08;1749966;82;21089;-63
2022/07/10 14:34:01;;;;;;;2.52;1.50;;;;;;;25.16;42.24;99441.73;1750037;80;21038;-62
2022/07/10 14:36:31;;;;;;;1.80;1.40;;;;;;;25.11;42.53;99436.83;1749549;81;21074;-62
2022/07/10 14:39:01;;;;;;;1.92;1.37;;;;;;;25.05;42.82;99429.12;1750224;81;21045;-64
2022/07/10 14:41:32;;;;;;;2.60;1.40;;;;;;;25.00;43.07;99436.25;1749725;82;21468;-65
2022/07/10 14:44:02;;;;;;;2.00;1.30;;;;;;;24.96;43.37;99440.22;1746932;82;21482;-63
2022/07/10 14:46:32;;;;;;;1.52;1.20;;;;;;;24.94;43.43;99443.91;1750186;82;21061;-63
2022/07/10 14:49:02;;;;;;;3.70;1.37;;;;;;;24.90;43.56;99441.48;1750123;81;21069;-63
2022/07/10 14:51:31;;;;;;;6.05;1.40;;;;;;;24.87;43.62;99443.52;1749796;82;21010;-65
2022/07/10 14:54:00;;;;;;;1.85;1.40;;;;;;;24.85;43.36;99445.81;1750673;82;21002;-63
2022/07/10 14:56:30;;;;;;;2.15;1.20;;;;;;;24.81;43.47;99450.39;1749695;81;21022;-64
2022/07/10 14:59:01;;;;;;;3.27;1.30;;;;;;;24.77;43.57;99447.95;1749682;81;21019;-63
2022/07/10 15:01:33;;;;;;;1.42;1.20;;;;;;;24.75;43.49;99452.22;1747340;80;21058;-63
2022/07/10 15:04:03;;;;;;;3.75;1.05;;;;;;;24.65;43.36;99451.27;1735554;82;21019;-64
2022/07/10 15:06:35;;;;;;;3.65;1.40;;;;;;;24.59;43.32;99453.92;1734940;83;21451;-64